sensor_id;sensor_type;location;lat;lon;timestamp;temperature;humidity
39493;DHT22;25176;51.060;3.720;2023-02-27T00:01:38;3.00;90.10
39493;DHT22;25176;51.060;3.720;2023-02-27T00:04:03;3.00;90.20
39493;DHT22;25176;51.060;3.720;2023-02-27T00:06:29;3.10;90.00
39493;DHT22;25176;51.060;3.720;2023-02-27T00:08:54;3.10;89.90
39493;DHT22;25176;51.060;3.720;2023-02-27T00:11:20;3.00;89.90
39493;DHT22;25176;51.060;3.720;2023-02-27T00:13:46;3.00;90.10
39493;DHT22;25176;51.060;3.720;2023-02-27T00:16:11;3.00;90.10
39493;DHT22;25176;51.060;3.720;2023-02-27T00:18:37;2.90;90.20
39493;DHT22;25176;51.060;3.720;2023-02-27T00:21:03;2.90;90.10
39493;DHT22;25176;51.060;3.720;2023-02-27T00:23:28;2.90;90.00
39493;DHT22;25176;51.060;3.720;2023-02-27T00:25:54;2.90;90.10
39493;DHT22;25176;51.060;3.720;2023-02-27T00:28:20;2.90;90.10
39493;DHT22;25176;51.060;3.720;2023-02-27T00:30:46;2.80;90.30
39493;DHT22;25176;51.060;3.720;2023-02-27T00:33:11;2.70;90.30
39493;DHT22;25176;51.060;3.720;2023-02-27T00:35:37;2.70;90.30
39493;DHT22;25176;51.060;3.720;2023-02-27T00:38:02;2.70;90.30
39493;DHT22;25176;51.060;3.720;2023-02-27T00:40:28;2.80;90.30
39493;DHT22;25176;51.060;3.720;2023-02-27T00:42:53;2.80;90.20
39493;DHT22;25176;51.060;3.720;2023-02-27T00:45:19;2.70;90.10
39493;DHT22;25176;51.060;3.720;2023-02-27T00:47:44;2.70;90.10
39493;DHT22;25176;51.060;3.720;2023-02-27T00:50:10;2.70;90.10
39493;DHT22;25176;51.060;3.720;2023-02-27T00:52:36;2.70;90.00
39493;DHT22;25176;51.060;3.720;2023-02-27T00:55:02;2.70;90.10
39493;DHT22;25176;51.060;3.720;2023-02-27T00:57:27;2.70;90.20
39493;DHT22;25176;51.060;3.720;2023-02-27T00:59:52;2.70;90.20
39493;DHT22;25176;51.060;3.720;2023-02-27T01:02:18;2.70;90.20
39493;DHT22;25176;51.060;3.720;2023-02-27T01:04:43;2.70;90.20
39493;DHT22;25176;51.060;3.720;2023-02-27T01:07:09;2.70;90.30
39493;DHT22;25176;51.060;3.720;2023-02-27T01:09:35;2.80;90.10
39493;DHT22;25176;51.060;3.720;2023-02-27T01:12:00;2.80;89.90
39493;DHT22;25176;51.060;3.720;2023-02-27T01:14:26;2.70;90.00
39493;DHT22;25176;51.060;3.720;2023-02-27T01:16:51;2.70;90.00
39493;DHT22;25176;51.060;3.720;2023-02-27T01:19:17;2.70;90.00
39493;DHT22;25176;51.060;3.720;2023-02-27T01:21:42;2.70;89.70
39493;DHT22;25176;51.060;3.720;2023-02-27T01:24:08;2.70;89.90
39493;DHT22;25176;51.060;3.720;2023-02-27T01:26:34;2.70;89.90
39493;DHT22;25176;51.060;3.720;2023-02-27T01:28:59;2.60;89.60
39493;DHT22;25176;51.060;3.720;2023-02-27T01:31:25;2.70;90.00
39493;DHT22;25176;51.060;3.720;2023-02-27T01:33:50;2.70;89.60
39493;DHT22;25176;51.060;3.720;2023-02-27T01:36:16;2.60;90.00
39493;DHT22;25176;51.060;3.720;2023-02-27T01:38:41;2.60;89.90
39493;DHT22;25176;51.060;3.720;2023-02-27T01:41:07;2.70;90.00
39493;DHT22;25176;51.060;3.720;2023-02-27T01:43:33;2.60;90.00
39493;DHT22;25176;51.060;3.720;2023-02-27T01:45:58;2.60;90.10
39493;DHT22;25176;51.060;3.720;2023-02-27T01:51:01;2.60;90.00
39493;DHT22;25176;51.060;3.720;2023-02-27T01:53:28;2.70;89.90
39493;DHT22;25176;51.060;3.720;2023-02-27T01:55:56;2.70;89.80
39493;DHT22;25176;51.060;3.720;2023-02-27T01:58:22;2.70;89.80
39493;DHT22;25176;51.060;3.720;2023-02-27T02:00:48;2.70;89.50
39493;DHT22;25176;51.060;3.720;2023-02-27T02:05:58;2.70;89.30
39493;DHT22;25176;51.060;3.720;2023-02-27T02:08:25;2.70;89.70
39493;DHT22;25176;51.060;3.720;2023-02-27T02:10:52;2.60;90.00
39493;DHT22;25176;51.060;3.720;2023-02-27T02:13:19;2.60;90.10
39493;DHT22;25176;51.060;3.720;2023-02-27T02:18:36;2.60;90.10
39493;DHT22;25176;51.060;3.720;2023-02-27T02:21:11;2.50;90.10
39493;DHT22;25176;51.060;3.720;2023-02-27T02:23:57;2.50;90.20
39493;DHT22;25176;51.060;3.720;2023-02-27T02:39:23;2.40;90.30
39493;DHT22;25176;51.060;3.720;2023-02-27T02:47:32;2.40;90.20
39493;DHT22;25176;51.060;3.720;2023-02-27T02:54:43;2.30;90.10
39493;DHT22;25176;51.060;3.720;2023-02-27T02:57:29;2.30;90.20
39493;DHT22;25176;51.060;3.720;2023-02-27T02:59:58;2.30;90.20
39493;DHT22;25176;51.060;3.720;2023-02-27T03:02:26;2.00;90.40
39493;DHT22;25176;51.060;3.720;2023-02-27T03:04:54;2.30;90.50
39493;DHT22;25176;51.060;3.720;2023-02-27T03:07:23;2.30;90.50
39493;DHT22;25176;51.060;3.720;2023-02-27T03:12:30;2.30;90.50
39493;DHT22;25176;51.060;3.720;2023-02-27T03:15:02;2.40;90.50
39493;DHT22;25176;51.060;3.720;2023-02-27T03:17:34;2.40;90.70
39493;DHT22;25176;51.060;3.720;2023-02-27T03:20:05;2.30;90.70
39493;DHT22;25176;51.060;3.720;2023-02-27T03:22:36;2.20;91.00
39493;DHT22;25176;51.060;3.720;2023-02-27T03:25:04;2.20;91.00
39493;DHT22;25176;51.060;3.720;2023-02-27T03:27:34;2.20;91.00
39493;DHT22;25176;51.060;3.720;2023-02-27T03:34:55;2.20;91.20
39493;DHT22;25176;51.060;3.720;2023-02-27T03:37:38;2.20;91.30
39493;DHT22;25176;51.060;3.720;2023-02-27T03:42:32;2.20;91.50
39493;DHT22;25176;51.060;3.720;2023-02-27T03:47:41;2.20;91.40
39493;DHT22;25176;51.060;3.720;2023-02-27T03:50:06;2.10;91.60
39493;DHT22;25176;51.060;3.720;2023-02-27T03:52:32;2.20;91.70
39493;DHT22;25176;51.060;3.720;2023-02-27T03:54:59;2.20;91.50
39493;DHT22;25176;51.060;3.720;2023-02-27T03:57:26;2.20;91.40
39493;DHT22;25176;51.060;3.720;2023-02-27T03:59:52;2.20;91.50
39493;DHT22;25176;51.060;3.720;2023-02-27T04:02:18;2.10;91.50
39493;DHT22;25176;51.060;3.720;2023-02-27T04:04:44;2.10;91.50
39493;DHT22;25176;51.060;3.720;2023-02-27T04:09:52;2.10;91.50
39493;DHT22;25176;51.060;3.720;2023-02-27T04:17:23;2.10;91.60
39493;DHT22;25176;51.060;3.720;2023-02-27T04:30:13;2.00;91.80
39493;DHT22;25176;51.060;3.720;2023-02-27T04:35:24;2.00;91.80
39493;DHT22;25176;51.060;3.720;2023-02-27T04:38:01;2.00;91.90
39493;DHT22;25176;51.060;3.720;2023-02-27T04:40:33;2.00;91.80
39493;DHT22;25176;51.060;3.720;2023-02-27T04:43:00;2.00;91.90
39493;DHT22;25176;51.060;3.720;2023-02-27T04:45:28;1.90;91.90
39493;DHT22;25176;51.060;3.720;2023-02-27T04:48:00;1.90;91.90
39493;DHT22;25176;51.060;3.720;2023-02-27T04:50:28;1.90;91.90
39493;DHT22;25176;51.060;3.720;2023-02-27T04:53:07;2.00;92.00
39493;DHT22;25176;51.060;3.720;2023-02-27T04:55:38;1.90;91.90
39493;DHT22;25176;51.060;3.720;2023-02-27T04:58:07;1.90;91.90
39493;DHT22;25176;51.060;3.720;2023-02-27T05:00:34;1.90;91.90
39493;DHT22;25176;51.060;3.720;2023-02-27T05:03:03;1.90;91.90
39493;DHT22;25176;51.060;3.720;2023-02-27T05:05:30;1.90;91.90
39493;DHT22;25176;51.060;3.720;2023-02-27T05:08:01;1.80;92.10
39493;DHT22;25176;51.060;3.720;2023-02-27T05:10:31;1.80;92.20
39493;DHT22;25176;51.060;3.720;2023-02-27T05:13:04;1.80;92.20
39493;DHT22;25176;51.060;3.720;2023-02-27T05:15:31;1.80;92.20
39493;DHT22;25176;51.060;3.720;2023-02-27T05:18:00;1.70;92.30
39493;DHT22;25176;51.060;3.720;2023-02-27T05:20:29;1.70;92.30
39493;DHT22;25176;51.060;3.720;2023-02-27T05:25:26;1.80;92.20
39493;DHT22;25176;51.060;3.720;2023-02-27T05:28:06;1.80;92.10
39493;DHT22;25176;51.060;3.720;2023-02-27T05:33:19;1.80;92.20
39493;DHT22;25176;51.060;3.720;2023-02-27T05:38:31;1.80;92.40
39493;DHT22;25176;51.060;3.720;2023-02-27T05:41:20;1.70;92.60
39493;DHT22;25176;51.060;3.720;2023-02-27T05:43:52;1.70;92.70
39493;DHT22;25176;51.060;3.720;2023-02-27T05:46:24;1.60;92.70
39493;DHT22;25176;51.060;3.720;2023-02-27T05:48:53;1.60;92.70
39493;DHT22;25176;51.060;3.720;2023-02-27T05:51:21;1.60;92.80
39493;DHT22;25176;51.060;3.720;2023-02-27T05:53:48;1.60;92.90
39493;DHT22;25176;51.060;3.720;2023-02-27T05:56:16;1.60;93.00
39493;DHT22;25176;51.060;3.720;2023-02-27T05:58:44;1.60;92.90
39493;DHT22;25176;51.060;3.720;2023-02-27T06:01:13;1.60;92.80
39493;DHT22;25176;51.060;3.720;2023-02-27T06:03:39;1.50;92.90
39493;DHT22;25176;51.060;3.720;2023-02-27T06:06:06;1.50;92.90
39493;DHT22;25176;51.060;3.720;2023-02-27T06:08:32;1.50;93.10
39493;DHT22;25176;51.060;3.720;2023-02-27T06:10:58;1.50;93.10
39493;DHT22;25176;51.060;3.720;2023-02-27T06:13:23;1.60;93.00
39493;DHT22;25176;51.060;3.720;2023-02-27T06:15:50;1.60;92.80
39493;DHT22;25176;51.060;3.720;2023-02-27T06:18:16;1.50;92.90
39493;DHT22;25176;51.060;3.720;2023-02-27T06:20:42;1.50;92.90
39493;DHT22;25176;51.060;3.720;2023-02-27T06:23:08;1.60;92.90
39493;DHT22;25176;51.060;3.720;2023-02-27T06:25:33;1.60;92.80
39493;DHT22;25176;51.060;3.720;2023-02-27T06:27:59;1.60;92.80
39493;DHT22;25176;51.060;3.720;2023-02-27T06:30:24;1.60;92.80
39493;DHT22;25176;51.060;3.720;2023-02-27T06:32:50;1.60;92.70
39493;DHT22;25176;51.060;3.720;2023-02-27T06:35:16;1.60;92.80
39493;DHT22;25176;51.060;3.720;2023-02-27T06:37:41;1.60;92.80
39493;DHT22;25176;51.060;3.720;2023-02-27T06:40:07;1.70;92.80
39493;DHT22;25176;51.060;3.720;2023-02-27T06:42:38;1.60;92.70
39493;DHT22;25176;51.060;3.720;2023-02-27T06:45:04;1.70;92.70
39493;DHT22;25176;51.060;3.720;2023-02-27T06:47:30;1.70;92.70
39493;DHT22;25176;51.060;3.720;2023-02-27T06:49:56;1.70;92.90
39493;DHT22;25176;51.060;3.720;2023-02-27T06:52:22;1.60;92.80
39493;DHT22;25176;51.060;3.720;2023-02-27T06:54:47;1.70;92.80
39493;DHT22;25176;51.060;3.720;2023-02-27T06:57:13;1.60;92.90
39493;DHT22;25176;51.060;3.720;2023-02-27T06:59:39;1.70;92.90
39493;DHT22;25176;51.060;3.720;2023-02-27T07:02:06;1.70;92.90
39493;DHT22;25176;51.060;3.720;2023-02-27T07:04:32;1.70;92.80
39493;DHT22;25176;51.060;3.720;2023-02-27T07:06:58;1.70;92.80
39493;DHT22;25176;51.060;3.720;2023-02-27T07:09:24;1.70;92.80
39493;DHT22;25176;51.060;3.720;2023-02-27T07:11:50;1.80;92.70
39493;DHT22;25176;51.060;3.720;2023-02-27T07:14:15;1.70;92.90
39493;DHT22;25176;51.060;3.720;2023-02-27T07:16:41;1.70;92.70
39493;DHT22;25176;51.060;3.720;2023-02-27T07:19:07;1.70;92.80
39493;DHT22;25176;51.060;3.720;2023-02-27T07:21:32;1.70;92.80
39493;DHT22;25176;51.060;3.720;2023-02-27T07:23:58;1.80;92.80
39493;DHT22;25176;51.060;3.720;2023-02-27T07:29:33;1.80;92.60
39493;DHT22;25176;51.060;3.720;2023-02-27T07:32:21;1.80;92.60
39493;DHT22;25176;51.060;3.720;2023-02-27T07:34:57;1.90;92.70
39493;DHT22;25176;51.060;3.720;2023-02-27T07:37:23;1.90;92.70
39493;DHT22;25176;51.060;3.720;2023-02-27T07:39:51;1.90;92.70
39493;DHT22;25176;51.060;3.720;2023-02-27T07:42:20;2.00;92.60
39493;DHT22;25176;51.060;3.720;2023-02-27T07:44:45;2.00;92.50
39493;DHT22;25176;51.060;3.720;2023-02-27T07:47:14;2.10;92.50
39493;DHT22;25176;51.060;3.720;2023-02-27T07:49:42;2.10;92.30
39493;DHT22;25176;51.060;3.720;2023-02-27T07:52:09;2.20;92.40
39493;DHT22;25176;51.060;3.720;2023-02-27T07:54:44;2.20;92.20
39493;DHT22;25176;51.060;3.720;2023-02-27T07:57:12;2.20;92.10
39493;DHT22;25176;51.060;3.720;2023-02-27T07:59:38;2.20;92.10
39493;DHT22;25176;51.060;3.720;2023-02-27T08:08:43;2.40;92.00
39493;DHT22;25176;51.060;3.720;2023-02-27T08:11:15;2.40;91.90
39493;DHT22;25176;51.060;3.720;2023-02-27T08:14:01;2.40;91.90
39493;DHT22;25176;51.060;3.720;2023-02-27T08:16:35;2.50;92.10
39493;DHT22;25176;51.060;3.720;2023-02-27T08:19:23;2.60;91.80
39493;DHT22;25176;51.060;3.720;2023-02-27T08:25:10;2.70;91.60
39493;DHT22;25176;51.060;3.720;2023-02-27T08:28:03;2.70;91.60
39493;DHT22;25176;51.060;3.720;2023-02-27T08:30:53;2.80;91.60
39493;DHT22;25176;51.060;3.720;2023-02-27T08:33:40;2.90;91.50
39493;DHT22;25176;51.060;3.720;2023-02-27T08:36:18;3.00;91.30
39493;DHT22;25176;51.060;3.720;2023-02-27T08:38:44;3.20;91.30
39493;DHT22;25176;51.060;3.720;2023-02-27T08:41:10;3.20;91.10
39493;DHT22;25176;51.060;3.720;2023-02-27T08:43:35;3.30;91.00
39493;DHT22;25176;51.060;3.720;2023-02-27T08:46:01;3.50;90.80
39493;DHT22;25176;51.060;3.720;2023-02-27T08:48:28;4.60;90.40
39493;DHT22;25176;51.060;3.720;2023-02-27T08:51:07;6.30;85.20
39493;DHT22;25176;51.060;3.720;2023-02-27T08:53:32;8.50;79.70
39493;DHT22;25176;51.060;3.720;2023-02-27T09:02:04;13.90;65.50
39493;DHT22;25176;51.060;3.720;2023-02-27T09:04:30;14.90;61.30
39493;DHT22;25176;51.060;3.720;2023-02-27T09:06:58;14.40;61.20
39493;DHT22;25176;51.060;3.720;2023-02-27T09:09:46;14.10;61.60
39493;DHT22;25176;51.060;3.720;2023-02-27T09:12:24;13.20;62.40
39493;DHT22;25176;51.060;3.720;2023-02-27T09:14:59;13.10;62.60
39493;DHT22;25176;51.060;3.720;2023-02-27T09:17:37;13.80;61.50
39493;DHT22;25176;51.060;3.720;2023-02-27T09:20:35;14.80;59.80
39493;DHT22;25176;51.060;3.720;2023-02-27T09:23:02;14.40;59.10
39493;DHT22;25176;51.060;3.720;2023-02-27T09:25:27;14.10;59.80
39493;DHT22;25176;51.060;3.720;2023-02-27T09:27:53;14.70;58.80
39493;DHT22;25176;51.060;3.720;2023-02-27T09:30:23;14.30;58.00
39493;DHT22;25176;51.060;3.720;2023-02-27T09:32:50;14.80;58.40
39493;DHT22;25176;51.060;3.720;2023-02-27T09:35:16;14.90;57.50
39493;DHT22;25176;51.060;3.720;2023-02-27T09:37:44;15.70;56.20
39493;DHT22;25176;51.060;3.720;2023-02-27T09:40:22;14.60;58.40
39493;DHT22;25176;51.060;3.720;2023-02-27T09:42:50;16.20;55.40
39493;DHT22;25176;51.060;3.720;2023-02-27T09:48:31;14.70;56.50
39493;DHT22;25176;51.060;3.720;2023-02-27T09:51:06;14.50;55.80
39493;DHT22;25176;51.060;3.720;2023-02-27T09:53:51;13.20;57.70
39493;DHT22;25176;51.060;3.720;2023-02-27T10:01:42;11.80;59.90
39493;DHT22;25176;51.060;3.720;2023-02-27T10:15:38;14.20;57.30
39493;DHT22;25176;51.060;3.720;2023-02-27T10:18:17;16.40;55.10
39493;DHT22;25176;51.060;3.720;2023-02-27T10:21:06;15.70;54.90
39493;DHT22;25176;51.060;3.720;2023-02-27T10:23:33;14.30;55.30
39493;DHT22;25176;51.060;3.720;2023-02-27T10:26:06;13.00;56.40
39493;DHT22;25176;51.060;3.720;2023-02-27T10:28:46;12.40;59.70
39493;DHT22;25176;51.060;3.720;2023-02-27T10:31:23;12.70;59.30
39493;DHT22;25176;51.060;3.720;2023-02-27T10:33:50;11.70;59.40
39493;DHT22;25176;51.060;3.720;2023-02-27T10:36:16;10.90;60.20
39493;DHT22;25176;51.060;3.720;2023-02-27T10:38:43;9.40;62.60
39493;DHT22;25176;51.060;3.720;2023-02-27T10:41:11;8.40;66.00
39493;DHT22;25176;51.060;3.720;2023-02-27T10:43:38;8.00;66.60
39493;DHT22;25176;51.060;3.720;2023-02-27T10:46:14;7.50;67.80
39493;DHT22;25176;51.060;3.720;2023-02-27T10:48:40;7.40;68.60
39493;DHT22;25176;51.060;3.720;2023-02-27T10:56:44;6.90;69.50
39493;DHT22;25176;51.060;3.720;2023-02-27T10:59:24;7.20;69.80
39493;DHT22;25176;51.060;3.720;2023-02-27T11:01:55;7.10;69.50
39493;DHT22;25176;51.060;3.720;2023-02-27T11:06:56;7.10;69.90
39493;DHT22;25176;51.060;3.720;2023-02-27T11:09:26;7.10;69.60
39493;DHT22;25176;51.060;3.720;2023-02-27T11:11:53;6.90;69.70
39493;DHT22;25176;51.060;3.720;2023-02-27T11:25:42;6.60;70.10
39493;DHT22;25176;51.060;3.720;2023-02-27T11:28:14;6.50;69.60
39493;DHT22;25176;51.060;3.720;2023-02-27T11:33:50;6.50;69.20
39493;DHT22;25176;51.060;3.720;2023-02-27T11:36:18;6.50;69.30
39493;DHT22;25176;51.060;3.720;2023-02-27T11:38:50;6.50;68.60
39493;DHT22;25176;51.060;3.720;2023-02-27T11:41:17;6.60;68.30
39493;DHT22;25176;51.060;3.720;2023-02-27T11:43:47;6.60;68.20
39493;DHT22;25176;51.060;3.720;2023-02-27T11:46:21;6.60;68.60
39493;DHT22;25176;51.060;3.720;2023-02-27T11:48:54;6.50;68.10
39493;DHT22;25176;51.060;3.720;2023-02-27T11:51:31;6.60;68.20
39493;DHT22;25176;51.060;3.720;2023-02-27T11:54:09;6.40;67.90
39493;DHT22;25176;51.060;3.720;2023-02-27T11:56:41;6.50;68.30
39493;DHT22;25176;51.060;3.720;2023-02-27T11:59:13;6.60;68.00
39493;DHT22;25176;51.060;3.720;2023-02-27T12:07:04;6.60;68.20
39493;DHT22;25176;51.060;3.720;2023-02-27T12:09:33;6.60;68.70
39493;DHT22;25176;51.060;3.720;2023-02-27T12:12:00;6.50;68.30
39493;DHT22;25176;51.060;3.720;2023-02-27T12:14:42;6.60;68.00
39493;DHT22;25176;51.060;3.720;2023-02-27T12:17:14;6.60;67.90
39493;DHT22;25176;51.060;3.720;2023-02-27T12:19:43;6.70;68.70
39493;DHT22;25176;51.060;3.720;2023-02-27T12:22:19;6.80;68.90
39493;DHT22;25176;51.060;3.720;2023-02-27T12:24:49;6.90;67.60
39493;DHT22;25176;51.060;3.720;2023-02-27T12:27:20;6.90;65.90
39493;DHT22;25176;51.060;3.720;2023-02-27T12:29:48;6.90;66.40
39493;DHT22;25176;51.060;3.720;2023-02-27T12:32:31;6.90;66.80
39493;DHT22;25176;51.060;3.720;2023-02-27T12:35:06;6.90;67.50
39493;DHT22;25176;51.060;3.720;2023-02-27T12:37:53;7.00;67.90
39493;DHT22;25176;51.060;3.720;2023-02-27T12:40:20;7.00;67.10
39493;DHT22;25176;51.060;3.720;2023-02-27T12:42:59;7.00;67.40
39493;DHT22;25176;51.060;3.720;2023-02-27T12:50:30;7.00;67.00
39493;DHT22;25176;51.060;3.720;2023-02-27T12:53:16;7.10;66.90
39493;DHT22;25176;51.060;3.720;2023-02-27T12:55:46;7.00;66.10
39493;DHT22;25176;51.060;3.720;2023-02-27T13:00:56;7.00;66.10
39493;DHT22;25176;51.060;3.720;2023-02-27T13:06:17;7.20;66.50
39493;DHT22;25176;51.060;3.720;2023-02-27T13:08:58;7.20;66.10
39493;DHT22;25176;51.060;3.720;2023-02-27T13:11:41;7.20;65.70
39493;DHT22;25176;51.060;3.720;2023-02-27T13:14:44;7.20;66.10
39493;DHT22;25176;51.060;3.720;2023-02-27T13:17:22;7.30;66.10
39493;DHT22;25176;51.060;3.720;2023-02-27T13:19:51;7.20;65.90
39493;DHT22;25176;51.060;3.720;2023-02-27T13:25:04;7.30;66.50
39493;DHT22;25176;51.060;3.720;2023-02-27T13:27:35;7.40;67.00
39493;DHT22;25176;51.060;3.720;2023-02-27T13:32:54;7.30;65.10
39493;DHT22;25176;51.060;3.720;2023-02-27T13:43:52;7.40;65.40
39493;DHT22;25176;51.060;3.720;2023-02-27T13:46:22;7.50;65.50
39493;DHT22;25176;51.060;3.720;2023-02-27T13:48:54;7.50;65.20
39493;DHT22;25176;51.060;3.720;2023-02-27T13:51:40;7.40;64.90
39493;DHT22;25176;51.060;3.720;2023-02-27T14:01:51;7.50;65.70
39493;DHT22;25176;51.060;3.720;2023-02-27T14:04:17;7.60;65.50
39493;DHT22;25176;51.060;3.720;2023-02-27T14:06:44;7.60;65.40
39493;DHT22;25176;51.060;3.720;2023-02-27T14:09:18;7.50;65.20
39493;DHT22;25176;51.060;3.720;2023-02-27T14:11:55;7.50;65.50
39493;DHT22;25176;51.060;3.720;2023-02-27T14:14:43;7.50;65.80
39493;DHT22;25176;51.060;3.720;2023-02-27T14:17:13;7.40;66.30
39493;DHT22;25176;51.060;3.720;2023-02-27T14:30:04;7.50;66.70
39493;DHT22;25176;51.060;3.720;2023-02-27T14:32:33;7.50;66.10
39493;DHT22;25176;51.060;3.720;2023-02-27T14:34:59;7.40;66.00
39493;DHT22;25176;51.060;3.720;2023-02-27T14:37:27;7.40;66.50
39493;DHT22;25176;51.060;3.720;2023-02-27T14:39:55;7.30;66.70
39493;DHT22;25176;51.060;3.720;2023-02-27T14:45:21;7.30;67.00
39493;DHT22;25176;51.060;3.720;2023-02-27T14:47:48;7.30;66.70
39493;DHT22;25176;51.060;3.720;2023-02-27T14:50:27;7.30;67.30
39493;DHT22;25176;51.060;3.720;2023-02-27T14:52:56;7.20;67.10
39493;DHT22;25176;51.060;3.720;2023-02-27T14:55:23;7.30;67.20
39493;DHT22;25176;51.060;3.720;2023-02-27T14:57:58;7.40;67.00
39493;DHT22;25176;51.060;3.720;2023-02-27T15:00:28;7.40;67.40
39493;DHT22;25176;51.060;3.720;2023-02-27T15:02:55;7.40;67.60
39493;DHT22;25176;51.060;3.720;2023-02-27T15:05:22;7.60;67.00
39493;DHT22;25176;51.060;3.720;2023-02-27T15:07:50;7.60;67.20
39493;DHT22;25176;51.060;3.720;2023-02-27T15:10:17;7.50;67.90
39493;DHT22;25176;51.060;3.720;2023-02-27T15:12:48;7.50;67.70
39493;DHT22;25176;51.060;3.720;2023-02-27T15:15:15;7.50;67.50
39493;DHT22;25176;51.060;3.720;2023-02-27T15:17:43;7.40;67.80
39493;DHT22;25176;51.060;3.720;2023-02-27T15:22:53;7.30;68.50
39493;DHT22;25176;51.060;3.720;2023-02-27T15:25:29;7.20;69.20
39493;DHT22;25176;51.060;3.720;2023-02-27T15:27:56;7.20;69.10
39493;DHT22;25176;51.060;3.720;2023-02-27T15:30:23;7.20;69.10
39493;DHT22;25176;51.060;3.720;2023-02-27T15:32:49;7.10;69.90
39493;DHT22;25176;51.060;3.720;2023-02-27T15:35:16;7.10;69.60
39493;DHT22;25176;51.060;3.720;2023-02-27T15:37:45;7.00;70.10
39493;DHT22;25176;51.060;3.720;2023-02-27T15:40:14;7.00;70.00
39493;DHT22;25176;51.060;3.720;2023-02-27T15:42:43;6.90;70.20
39493;DHT22;25176;51.060;3.720;2023-02-27T15:45:09;7.00;70.20
39493;DHT22;25176;51.060;3.720;2023-02-27T15:47:41;7.10;70.00
39493;DHT22;25176;51.060;3.720;2023-02-27T15:52:37;7.30;70.00
39493;DHT22;25176;51.060;3.720;2023-02-27T15:55:05;7.30;69.90
39493;DHT22;25176;51.060;3.720;2023-02-27T15:57:34;7.20;70.40
39493;DHT22;25176;51.060;3.720;2023-02-27T15:59:59;7.10;69.90
39493;DHT22;25176;51.060;3.720;2023-02-27T16:02:26;6.90;69.90
39493;DHT22;25176;51.060;3.720;2023-02-27T16:04:53;6.80;70.20
39493;DHT22;25176;51.060;3.720;2023-02-27T16:07:22;6.60;70.90
39493;DHT22;25176;51.060;3.720;2023-02-27T16:09:53;6.70;71.20
39493;DHT22;25176;51.060;3.720;2023-02-27T16:12:33;6.80;70.70
39493;DHT22;25176;51.060;3.720;2023-02-27T16:20:51;6.70;70.30
39493;DHT22;25176;51.060;3.720;2023-02-27T16:28:29;6.60;70.50
39493;DHT22;25176;51.060;3.720;2023-02-27T16:30:55;6.60;70.30
39493;DHT22;25176;51.060;3.720;2023-02-27T16:33:21;6.60;70.50
39493;DHT22;25176;51.060;3.720;2023-02-27T16:35:48;6.60;70.70
39493;DHT22;25176;51.060;3.720;2023-02-27T16:38:14;6.60;71.20
39493;DHT22;25176;51.060;3.720;2023-02-27T16:40:42;6.60;70.90
39493;DHT22;25176;51.060;3.720;2023-02-27T16:43:08;6.60;71.50
39493;DHT22;25176;51.060;3.720;2023-02-27T16:45:33;6.60;71.30
39493;DHT22;25176;51.060;3.720;2023-02-27T16:47:59;6.60;71.40
39493;DHT22;25176;51.060;3.720;2023-02-27T16:50:33;6.60;71.40
39493;DHT22;25176;51.060;3.720;2023-02-27T16:52:59;6.50;72.00
39493;DHT22;25176;51.060;3.720;2023-02-27T16:55:25;6.50;72.30
39493;DHT22;25176;51.060;3.720;2023-02-27T16:57:50;6.50;72.30
39493;DHT22;25176;51.060;3.720;2023-02-27T17:00:16;6.50;72.20
39493;DHT22;25176;51.060;3.720;2023-02-27T17:02:42;6.40;72.60
39493;DHT22;25176;51.060;3.720;2023-02-27T17:05:08;6.40;72.70
39493;DHT22;25176;51.060;3.720;2023-02-27T17:07:34;6.40;72.60
39493;DHT22;25176;51.060;3.720;2023-02-27T17:09:59;6.40;72.50
39493;DHT22;25176;51.060;3.720;2023-02-27T17:12:25;6.40;72.50
39493;DHT22;25176;51.060;3.720;2023-02-27T17:14:50;6.40;72.10
39493;DHT22;25176;51.060;3.720;2023-02-27T17:17:16;6.40;72.40
39493;DHT22;25176;51.060;3.720;2023-02-27T17:19:42;6.40;72.50
39493;DHT22;25176;51.060;3.720;2023-02-27T17:22:07;6.40;72.20
39493;DHT22;25176;51.060;3.720;2023-02-27T17:24:33;6.30;71.90
39493;DHT22;25176;51.060;3.720;2023-02-27T17:26:58;6.30;72.50
39493;DHT22;25176;51.060;3.720;2023-02-27T17:29:24;6.30;72.50
39493;DHT22;25176;51.060;3.720;2023-02-27T17:31:49;6.20;72.70
39493;DHT22;25176;51.060;3.720;2023-02-27T17:34:15;6.20;73.30
39493;DHT22;25176;51.060;3.720;2023-02-27T17:36:41;6.30;72.90
39493;DHT22;25176;51.060;3.720;2023-02-27T17:39:07;6.20;72.90
39493;DHT22;25176;51.060;3.720;2023-02-27T17:41:33;6.20;73.30
39493;DHT22;25176;51.060;3.720;2023-02-27T17:43:58;6.20;73.10
39493;DHT22;25176;51.060;3.720;2023-02-27T17:46:26;6.20;73.30
39493;DHT22;25176;51.060;3.720;2023-02-27T17:48:52;6.20;73.40
39493;DHT22;25176;51.060;3.720;2023-02-27T17:51:19;6.20;73.60
39493;DHT22;25176;51.060;3.720;2023-02-27T17:53:44;6.20;73.60
39493;DHT22;25176;51.060;3.720;2023-02-27T17:56:10;6.10;73.80
39493;DHT22;25176;51.060;3.720;2023-02-27T17:58:36;6.10;73.90
39493;DHT22;25176;51.060;3.720;2023-02-27T18:01:10;6.10;74.10
39493;DHT22;25176;51.060;3.720;2023-02-27T18:03:36;6.10;74.30
39493;DHT22;25176;51.060;3.720;2023-02-27T18:06:02;6.10;74.30
39493;DHT22;25176;51.060;3.720;2023-02-27T18:08:28;6.20;74.50
39493;DHT22;25176;51.060;3.720;2023-02-27T18:10:54;6.20;74.50
39493;DHT22;25176;51.060;3.720;2023-02-27T18:13:19;6.30;74.40
39493;DHT22;25176;51.060;3.720;2023-02-27T18:15:46;6.20;74.20
39493;DHT22;25176;51.060;3.720;2023-02-27T18:18:11;6.20;74.30
39493;DHT22;25176;51.060;3.720;2023-02-27T18:20:37;6.20;74.60
39493;DHT22;25176;51.060;3.720;2023-02-27T18:23:03;6.30;74.40
39493;DHT22;25176;51.060;3.720;2023-02-27T18:25:29;6.30;74.60
39493;DHT22;25176;51.060;3.720;2023-02-27T18:27:55;6.20;74.60
39493;DHT22;25176;51.060;3.720;2023-02-27T18:30:20;6.20;75.00
39493;DHT22;25176;51.060;3.720;2023-02-27T18:32:46;6.30;74.80
39493;DHT22;25176;51.060;3.720;2023-02-27T18:35:11;6.20;74.90
39493;DHT22;25176;51.060;3.720;2023-02-27T18:37:37;6.30;74.80
39493;DHT22;25176;51.060;3.720;2023-02-27T18:40:03;6.30;75.00
39493;DHT22;25176;51.060;3.720;2023-02-27T18:42:30;6.20;75.80
39493;DHT22;25176;51.060;3.720;2023-02-27T18:44:55;6.10;75.40
39493;DHT22;25176;51.060;3.720;2023-02-27T18:47:21;6.10;75.70
39493;DHT22;25176;51.060;3.720;2023-02-27T18:49:46;6.00;75.40
39493;DHT22;25176;51.060;3.720;2023-02-27T18:52:12;6.00;75.80
39493;DHT22;25176;51.060;3.720;2023-02-27T18:54:37;6.00;76.30
39493;DHT22;25176;51.060;3.720;2023-02-27T18:57:05;5.90;76.60
39493;DHT22;25176;51.060;3.720;2023-02-27T18:59:30;5.90;76.60
39493;DHT22;25176;51.060;3.720;2023-02-27T19:01:56;5.90;76.90
39493;DHT22;25176;51.060;3.720;2023-02-27T19:04:22;5.80;76.90
39493;DHT22;25176;51.060;3.720;2023-02-27T19:06:49;5.80;77.00
39493;DHT22;25176;51.060;3.720;2023-02-27T19:09:15;5.90;77.50
39493;DHT22;25176;51.060;3.720;2023-02-27T19:11:40;5.80;77.20
39493;DHT22;25176;51.060;3.720;2023-02-27T19:14:07;5.80;77.60
39493;DHT22;25176;51.060;3.720;2023-02-27T19:16:33;5.80;77.40
39493;DHT22;25176;51.060;3.720;2023-02-27T19:18:59;5.70;77.90